EWG915 LPFR-LXGB
Flight info
| Callsign | EWG915 |
|---|---|
| Flight time | 0h 30m |
| Altitude | 34000 |
| Route | NIRAK Y136 NAPES N747 SVL M744 MAR N864 PIMOS |
| Aircraft | A319/M-SDE3FGHIRWY/LB1 |
Departure
| Time | 2026-04-27 18:25 |
|---|---|
| Airport | Faro - Gago Coutinho International Airport (LPFR) |
Arrival
| Time | 2026-04-27 18:55 |
|---|---|
| Airport | Gibraltar Airport (LXGB) |
| Time | Latitude | Longitude | Altitude | Speed | Heading |
|---|---|---|---|---|---|
| 2026-04-27 17:43 | 37.01879 | -7.96558 | 20 ft | 0 kts | 9° |
| 2026-04-27 18:16 | 37.01869 | -7.96560 | 20 ft | 4 kts | 9° |
| 2026-04-27 18:16 | 37.01842 | -7.96566 | 20 ft | 4 kts | 14° |
| 2026-04-27 18:16 | 37.01817 | -7.96577 | 21 ft | 4 kts | 28° |
| 2026-04-27 18:17 | 37.01799 | -7.96596 | 22 ft | 4 kts | 79° |
| 2026-04-27 18:17 | 37.01798 | -7.96605 | 20 ft | 0 kts | 99° |
| 2026-04-27 18:20 | 37.01798 | -7.96603 | 20 ft | 0 kts | 99° |
| 2026-04-27 18:20 | 37.01797 | -7.96597 | 21 ft | 2 kts | 100° |
| 2026-04-27 18:20 | 37.01791 | -7.96562 | 22 ft | 6 kts | 101° |
| 2026-04-27 18:20 | 37.01758 | -7.96517 | 20 ft | 9 kts | 172° |
| 2026-04-27 18:21 | 37.01680 | -7.96533 | 20 ft | 13 kts | 189° |
| 2026-04-27 18:21 | 37.01616 | -7.96504 | 21 ft | 12 kts | 107° |
| 2026-04-27 18:21 | 37.01599 | -7.96387 | 22 ft | 16 kts | 101° |
| 2026-04-27 18:21 | 37.01575 | -7.96227 | 20 ft | 21 kts | 100° |
| 2026-04-27 18:22 | 37.01549 | -7.96041 | 20 ft | 21 kts | 99° |
| 2026-04-27 18:22 | 37.01528 | -7.95892 | 20 ft | 7 kts | 104° |
| 2026-04-27 18:22 | 37.01518 | -7.95862 | 20 ft | 0 kts | 120° |
| 2026-04-27 18:22 | 37.01506 | -7.95846 | 22 ft | 4 kts | 140° |
| 2026-04-27 18:23 | 37.01479 | -7.95835 | 20 ft | 6 kts | 173° |
| 2026-04-27 18:23 | 37.01439 | -7.95842 | 20 ft | 2 kts | 190° |
| 2026-04-27 18:23 | 37.01438 | -7.95842 | 20 ft | 2 kts | 190° |
| 2026-04-27 18:23 | 37.01388 | -7.95852 | 21 ft | 11 kts | 188° |
| 2026-04-27 18:24 | 37.01345 | -7.95890 | 21 ft | 8 kts | 276° |
| 2026-04-27 18:24 | 37.01348 | -7.95905 | 21 ft | 0 kts | 279° |
| 2026-04-27 18:24 | 37.01348 | -7.95906 | 21 ft | 0 kts | 279° |
| 2026-04-27 18:25 | 37.01410 | -7.96346 | 22 ft | 106 kts | 280° |
| 2026-04-27 18:25 | 37.01571 | -7.97506 | 476 ft | 145 kts | 279° |
| 2026-04-27 18:25 | 37.01757 | -7.98786 | 1473 ft | 152 kts | 279° |
| 2026-04-27 18:25 | 37.01961 | -8.00179 | 1987 ft | 174 kts | 279° |
| 2026-04-27 18:26 | 37.02189 | -8.01747 | 2524 ft | 198 kts | 280° |
| 2026-04-27 18:26 | 37.02452 | -8.03538 | 3124 ft | 219 kts | 281° |
| 2026-04-27 18:26 | 37.02735 | -8.05460 | 3957 ft | 229 kts | 282° |
| 2026-04-27 18:26 | 37.03005 | -8.07458 | 4808 ft | 239 kts | 278° |
| 2026-04-27 18:27 | 37.02655 | -8.09602 | 5379 ft | 271 kts | 240° |
| 2026-04-27 18:27 | 37.01247 | -8.11247 | 6268 ft | 287 kts | 203° |
| 2026-04-27 18:27 | 36.99298 | -8.11651 | 7392 ft | 288 kts | 170° |
| 2026-04-27 18:27 | 36.97488 | -8.10680 | 8626 ft | 288 kts | 139° |
| 2026-04-27 18:28 | 36.96284 | -8.08617 | 9467 ft | 296 kts | 112° |
| 2026-04-27 18:28 | 36.95715 | -8.06162 | 9824 ft | 303 kts | 106° |
| 2026-04-27 18:28 | 36.95183 | -8.03546 | 10476 ft | 323 kts | 106° |
| 2026-04-27 18:28 | 36.94607 | -8.00712 | 10937 ft | 348 kts | 105° |
| 2026-04-27 18:29 | 36.93980 | -7.97696 | 11481 ft | 366 kts | 107° |
| 2026-04-27 18:29 | 36.93278 | -7.94610 | 12350 ft | 372 kts | 108° |
| 2026-04-27 18:29 | 36.92529 | -7.91488 | 13286 ft | 376 kts | 108° |
| 2026-04-27 18:29 | 36.91757 | -7.88357 | 14168 ft | 380 kts | 109° |
| 2026-04-27 18:30 | 36.90969 | -7.85182 | 14989 ft | 384 kts | 109° |
| 2026-04-27 18:30 | 36.90174 | -7.81975 | 15803 ft | 389 kts | 109° |
| 2026-04-27 18:30 | 36.89375 | -7.78731 | 16614 ft | 393 kts | 109° |
| 2026-04-27 18:30 | 36.88569 | -7.75440 | 17430 ft | 398 kts | 109° |
| 2026-04-27 18:31 | 36.87759 | -7.72117 | 18254 ft | 403 kts | 109° |
| 2026-04-27 18:31 | 36.86940 | -7.68745 | 18978 ft | 407 kts | 109° |
| 2026-04-27 18:31 | 36.86119 | -7.65355 | 19726 ft | 410 kts | 109° |
| 2026-04-27 18:31 | 36.85288 | -7.61927 | 20470 ft | 414 kts | 109° |
| 2026-04-27 18:32 | 36.84450 | -7.58481 | 21165 ft | 416 kts | 109° |
| 2026-04-27 18:32 | 36.83879 | -7.56140 | 21644 ft | 418 kts | 109° |
| 2026-04-27 18:32 | 36.83028 | -7.52658 | 22320 ft | 421 kts | 109° |
| 2026-04-27 18:32 | 36.82169 | -7.49149 | 22974 ft | 424 kts | 109° |
| 2026-04-27 18:33 | 36.81312 | -7.45662 | 23595 ft | 427 kts | 109° |
| 2026-04-27 18:33 | 36.80437 | -7.42113 | 24104 ft | 430 kts | 109° |
| 2026-04-27 18:33 | 36.79552 | -7.38532 | 24615 ft | 433 kts | 109° |
| 2026-04-27 18:33 | 36.78661 | -7.34921 | 25129 ft | 436 kts | 109° |
| 2026-04-27 18:34 | 36.77766 | -7.31298 | 25631 ft | 440 kts | 109° |
| 2026-04-27 18:34 | 36.76863 | -7.27634 | 26126 ft | 443 kts | 108° |
| 2026-04-27 18:34 | 36.75953 | -7.23942 | 26597 ft | 447 kts | 109° |
| 2026-04-27 18:34 | 36.75031 | -7.20222 | 27053 ft | 450 kts | 109° |
| 2026-04-27 18:35 | 36.74105 | -7.16484 | 27512 ft | 454 kts | 109° |
| 2026-04-27 18:35 | 36.73169 | -7.12718 | 27957 ft | 457 kts | 109° |
| 2026-04-27 18:35 | 36.72071 | -7.08989 | 28372 ft | 458 kts | 118° |
| 2026-04-27 18:35 | 36.70301 | -7.05709 | 28800 ft | 458 kts | 133° |
| 2026-04-27 18:36 | 36.68107 | -7.02824 | 29206 ft | 460 kts | 135° |
| 2026-04-27 18:36 | 36.65877 | -6.99949 | 29613 ft | 463 kts | 135° |
| 2026-04-27 18:36 | 36.63657 | -6.97029 | 30000 ft | 467 kts | 131° |
| 2026-04-27 18:36 | 36.61736 | -6.93723 | 30409 ft | 469 kts | 127° |
| 2026-04-27 18:37 | 36.59886 | -6.90390 | 30934 ft | 467 kts | 126° |
| 2026-04-27 18:37 | 36.58049 | -6.87074 | 31465 ft | 465 kts | 126° |
| 2026-04-27 18:37 | 36.56210 | -6.83751 | 31815 ft | 464 kts | 126° |
| 2026-04-27 18:37 | 36.54382 | -6.80459 | 31912 ft | 462 kts | 127° |
| 2026-04-27 18:38 | 36.50733 | -6.73912 | 31923 ft | 460 kts | 126° |
| 2026-04-27 18:38 | 36.47113 | -6.67436 | 31921 ft | 459 kts | 127° |
| 2026-04-27 18:39 | 36.43472 | -6.60927 | 31914 ft | 459 kts | 128° |
| 2026-04-27 18:39 | 36.39847 | -6.54465 | 31319 ft | 452 kts | 126° |
| 2026-04-27 18:40 | 36.38045 | -6.51253 | 30585 ft | 454 kts | 127° |
| 2026-04-27 18:40 | 36.36232 | -6.48028 | 29835 ft | 456 kts | 127° |
| 2026-04-27 18:40 | 36.34415 | -6.44796 | 28934 ft | 457 kts | 127° |
| 2026-04-27 18:40 | 36.32595 | -6.41555 | 28073 ft | 459 kts | 126° |
| 2026-04-27 18:41 | 36.30766 | -6.38300 | 27211 ft | 461 kts | 126° |
| 2026-04-27 18:41 | 36.28934 | -6.35041 | 25936 ft | 461 kts | 126° |
| 2026-04-27 18:41 | 36.27098 | -6.31783 | 24502 ft | 465 kts | 126° |
| 2026-04-27 18:41 | 36.25247 | -6.28503 | 23513 ft | 458 kts | 127° |
| 2026-04-27 18:42 | 36.23429 | -6.25282 | 22612 ft | 455 kts | 127° |
| 2026-04-27 18:42 | 36.22230 | -6.23162 | 22072 ft | 452 kts | 128° |
| 2026-04-27 18:42 | 36.19828 | -6.18924 | 21010 ft | 447 kts | 128° |
| 2026-04-27 18:42 | 36.18055 | -6.15796 | 20230 ft | 440 kts | 128° |
| 2026-04-27 18:43 | 36.16321 | -6.12735 | 19456 ft | 429 kts | 127° |
| 2026-04-27 18:43 | 36.14630 | -6.09754 | 18710 ft | 418 kts | 130° |
| 2026-04-27 18:43 | 36.12979 | -6.06846 | 18079 ft | 406 kts | 130° |
| 2026-04-27 18:43 | 36.11380 | -6.04028 | 17451 ft | 395 kts | 130° |
| 2026-04-27 18:44 | 36.09819 | -6.01280 | 16841 ft | 385 kts | 130° |
| 2026-04-27 18:44 | 36.08296 | -5.98602 | 16214 ft | 376 kts | 129° |
| 2026-04-27 18:44 | 36.06810 | -5.95996 | 15666 ft | 366 kts | 129° |
| 2026-04-27 18:44 | 36.05784 | -5.94201 | 15190 ft | 362 kts | 130° |
| 2026-04-27 18:45 | 36.04565 | -5.91755 | 14568 ft | 360 kts | 125° |
| 2026-04-27 18:45 | 36.03195 | -5.89192 | 13914 ft | 355 kts | 131° |
| 2026-04-27 18:45 | 36.01757 | -5.86741 | 13202 ft | 351 kts | 131° |
| 2026-04-27 18:45 | 36.00298 | -5.84340 | 12480 ft | 347 kts | 132° |
| 2026-04-27 18:46 | 35.98854 | -5.81962 | 11773 ft | 345 kts | 130° |
| 2026-04-27 18:46 | 35.97439 | -5.79590 | 11087 ft | 342 kts | 130° |
| 2026-04-27 18:46 | 35.96047 | -5.77212 | 10443 ft | 340 kts | 127° |
| 2026-04-27 18:46 | 35.94678 | -5.74843 | 9778 ft | 338 kts | 127° |
| 2026-04-27 18:47 | 35.93322 | -5.72479 | 9058 ft | 336 kts | 127° |
| 2026-04-27 18:47 | 35.91979 | -5.70132 | 8357 ft | 334 kts | 125° |
| 2026-04-27 18:47 | 35.91023 | -5.67572 | 8001 ft | 323 kts | 104° |
| 2026-04-27 18:47 | 35.90938 | -5.64899 | 7931 ft | 305 kts | 81° |
| 2026-04-27 18:48 | 35.91584 | -5.62487 | 7852 ft | 291 kts | 66° |
| 2026-04-27 18:48 | 35.92415 | -5.60257 | 7450 ft | 290 kts | 65° |
| 2026-04-27 18:48 | 35.93262 | -5.58008 | 7004 ft | 290 kts | 65° |
| 2026-04-27 18:48 | 35.94110 | -5.55751 | 6554 ft | 289 kts | 65° |
| 2026-04-27 18:49 | 35.94964 | -5.53479 | 6081 ft | 284 kts | 65° |
| 2026-04-27 18:49 | 35.95768 | -5.51342 | 5662 ft | 271 kts | 65° |
| 2026-04-27 18:49 | 35.96554 | -5.49283 | 5254 ft | 260 kts | 66° |
| 2026-04-27 18:49 | 35.97307 | -5.47289 | 4794 ft | 252 kts | 68° |
| 2026-04-27 18:50 | 35.98033 | -5.45337 | 4215 ft | 246 kts | 68° |
| 2026-04-27 18:50 | 35.98740 | -5.43446 | 3791 ft | 237 kts | 69° |
| 2026-04-27 18:50 | 35.99432 | -5.41639 | 3329 ft | 226 kts | 65° |
| 2026-04-27 18:50 | 36.00480 | -5.40302 | 2887 ft | 219 kts | 33° |
| 2026-04-27 18:51 | 36.01987 | -5.40042 | 2415 ft | 226 kts | 3° |
| 2026-04-27 18:51 | 36.03538 | -5.40229 | 1938 ft | 220 kts | 6° |
| 2026-04-27 18:51 | 36.05048 | -5.40263 | 1560 ft | 211 kts | 9° |
| 2026-04-27 18:51 | 36.06435 | -5.40260 | 1524 ft | 186 kts | 10° |
| 2026-04-27 18:52 | 36.07666 | -5.40257 | 1564 ft | 167 kts | 10° |
| 2026-04-27 18:52 | 36.08754 | -5.40262 | 1549 ft | 143 kts | 12° |
| 2026-04-27 18:52 | 36.09680 | -5.40272 | 1538 ft | 126 kts | 14° |
| 2026-04-27 18:53 | 36.11326 | -5.40275 | 1142 ft | 115 kts | 11° |
| 2026-04-27 18:53 | 36.12122 | -5.40276 | 929 ft | 114 kts | 10° |
| 2026-04-27 18:53 | 36.12951 | -5.40272 | 937 ft | 123 kts | 9° |
| 2026-04-27 18:53 | 36.13810 | -5.40224 | 884 ft | 121 kts | 15° |
| 2026-04-27 18:54 | 36.14555 | -5.39832 | 848 ft | 111 kts | 42° |
| 2026-04-27 18:54 | 36.15005 | -5.39138 | 651 ft | 105 kts | 72° |
| 2026-04-27 18:54 | 36.15056 | -5.38229 | 475 ft | 103 kts | 92° |
| 2026-04-27 18:54 | 36.15028 | -5.37380 | 313 ft | 104 kts | 84° |
| 2026-04-27 18:55 | 36.15070 | -5.36452 | 164 ft | 108 kts | 84° |
| 2026-04-27 18:55 | 36.15104 | -5.35545 | 37 ft | 105 kts | 85° |
| 2026-04-27 18:55 | 36.15128 | -5.34884 | 25 ft | 37 kts | 88° |
| 2026-04-27 18:55 | 36.15131 | -5.34772 | 22 ft | 14 kts | 86° |
| 2026-04-27 18:56 | 36.15188 | -5.34682 | 21 ft | 9 kts | 7° |
| 2026-04-27 18:56 | 36.15240 | -5.34674 | 19 ft | 2 kts | 9° |
| 2026-04-27 18:56 | 36.15268 | -5.34673 | 17 ft | 4 kts | 359° |
| 2026-04-27 18:56 | 36.15289 | -5.34674 | 17 ft | 3 kts | 359° |
| 2026-04-27 18:57 | 36.15302 | -5.34674 | 17 ft | 2 kts | 357° |
| 2026-04-27 18:57 | 36.15304 | -5.34675 | 17 ft | 0 kts | 357° |